Time;durP1;ratioP1;P1;durP2;ratioP2;P2;SDS_P1;SDS_P2;PMS_P1;PMS_P2;Temp;Humidity;BMP_temperature;BMP_pressure;BME280_temperature;BME280_humidity;BME280_pressure;Samples;Min_cycle;Max_cycle;Signal;HPM_P1;HPM_P2
2022/09/22 00:00:31;;;;;;;8.45;3.55;;;;;;;;;;4986859;28;20043;-63
2022/09/22 00:02:58;;;;;;;9.00;4.78;;;;;;;;;;4990543;28;20034;-63
2022/09/22 00:05:25;;;;;;;9.73;4.72;;;;;;;;;;4996647;28;20050;-63
2022/09/22 00:07:52;;;;;;;9.55;4.00;;;;;;;;;;5026941;23;20159;-87
2022/09/22 00:10:20;;;;;;;8.98;4.35;;;;;;;;;;5015524;28;20140;-87
2022/09/22 00:12:46;;;;;;;10.27;5.65;;;;;;;;;;5004483;28;20120;-87
2022/09/22 00:15:13;;;;;;;8.55;5.30;;;;;;;;;;4999978;28;20042;-87
2022/09/22 00:17:39;;;;;;;10.05;5.20;;;;;;;;;;4996415;28;20059;-87
2022/09/22 00:20:05;;;;;;;9.05;5.57;;;;;;;;;;5008803;28;20125;-87
2022/09/22 00:22:32;;;;;;;9.43;5.88;;;;;;;;;;4997346;28;20523;-87
2022/09/22 00:24:58;;;;;;;10.43;5.97;;;;;;;;;;4981199;28;20045;-87
2022/09/22 00:27:25;;;;;;;10.60;6.05;;;;;;;;;;4992797;28;20057;-88
2022/09/22 00:29:51;;;;;;;9.52;6.05;;;;;;;;;;5006201;28;20042;-87
2022/09/22 00:32:17;;;;;;;10.88;6.32;;;;;;;;;;4996124;28;20132;-87
2022/09/22 00:34:44;;;;;;;9.90;6.15;;;;;;;;;;4998072;28;20041;-87
2022/09/22 00:37:11;;;;;;;9.30;5.80;;;;;;;;;;5001115;28;20311;-87
2022/09/22 00:39:37;;;;;;;11.70;6.55;;;;;;;;;;4988664;28;20046;-86
2022/09/22 00:42:03;;;;;;;8.93;5.35;;;;;;;;;;5022334;28;20041;-87
2022/09/22 00:44:30;;;;;;;8.82;4.70;;;;;;;;;;4996268;28;20045;-87
2022/09/22 00:47:19;;;;;;;7.50;4.90;;;;;;;;;;4988615;28;20103;-86
2022/09/22 00:49:48;;;;;;;7.45;4.90;;;;;;;;;;4965459;28;20372;-87
2022/09/22 00:52:16;;;;;;;8.65;4.50;;;;;;;;;;4997481;28;20044;-86
2022/09/22 00:54:42;;;;;;;7.25;4.28;;;;;;;;;;4998154;28;20056;-87
2022/09/22 00:57:14;;;;;;;8.57;4.35;;;;;;;;;;4969921;28;20046;-87
2022/09/22 00:59:41;;;;;;;6.43;3.83;;;;;;;;;;4991787;28;20049;-87
2022/09/22 01:02:07;;;;;;;5.72;3.20;;;;;;;;;;4980993;28;20364;-86
2022/09/22 01:04:37;;;;;;;6.43;3.35;;;;;;;;;;4984219;28;20052;-87
2022/09/22 01:07:04;;;;;;;5.53;3.13;;;;;;;;;;4999610;28;20389;-87
2022/09/22 01:09:33;;;;;;;5.65;2.80;;;;;;;;;;4979822;28;20045;-87
2022/09/22 01:12:00;;;;;;;6.82;2.85;;;;;;;;;;4980479;28;20045;-87
2022/09/22 01:14:29;;;;;;;5.20;2.60;;;;;;;;;;5019482;28;20045;-87
2022/09/22 01:17:09;;;;;;;5.15;2.70;;;;;;;;;;4995876;28;20052;-86
2022/09/22 01:19:35;;;;;;;5.28;2.42;;;;;;;;;;5019975;28;20114;-87
2022/09/22 01:22:10;;;;;;;5.18;2.17;;;;;;;;;;4996132;28;20509;-87
2022/09/22 01:24:36;;;;;;;5.65;2.60;;;;;;;;;;5000477;28;20049;-87
2022/09/22 01:27:08;;;;;;;4.30;2.05;;;;;;;;;;4988365;28;20088;-86
2022/09/22 01:29:53;;;;;;;5.03;2.70;;;;;;;;;;5019228;28;20045;-87
2022/09/22 01:32:33;;;;;;;5.30;2.55;;;;;;;;;;4996655;28;20037;-87
2022/09/22 01:35:18;;;;;;;7.50;3.30;;;;;;;;;;5009399;28;20052;-87
2022/09/22 01:37:57;;;;;;;6.20;3.72;;;;;;;;;;4981076;28;20042;-87
2022/09/22 01:40:39;;;;;;;5.00;2.58;;;;;;;;;;5015034;28;20041;-86
2022/09/22 01:43:15;;;;;;;5.45;3.03;;;;;;;;;;4983963;28;20072;-86
2022/09/22 01:45:42;;;;;;;5.95;2.85;;;;;;;;;;5014754;28;20053;-86
2022/09/22 01:48:14;;;;;;;6.78;3.15;;;;;;;;;;5001347;28;20450;-87
2022/09/22 01:50:46;;;;;;;5.55;2.88;;;;;;;;;;4998220;28;20103;-86
2022/09/22 01:53:13;;;;;;;5.05;2.97;;;;;;;;;;5015576;28;20334;-86
2022/09/22 01:55:41;;;;;;;5.18;2.75;;;;;;;;;;5017730;28;20095;-86
2022/09/22 01:58:16;;;;;;;6.13;2.50;;;;;;;;;;4997088;28;20038;-87
2022/09/22 02:00:46;;;;;;;6.05;2.53;;;;;;;;;;5021870;28;20045;-87
2022/09/22 02:03:32;;;;;;;5.28;2.80;;;;;;;;;;4998968;28;20038;-88
2022/09/22 02:06:22;;;;;;;5.45;3.00;;;;;;;;;;4997107;28;20041;-87
2022/09/22 02:08:52;;;;;;;6.00;3.53;;;;;;;;;;4938981;28;20088;-87
2022/09/22 02:11:18;;;;;;;6.35;3.13;;;;;;;;;;5021961;28;20050;-86
2022/09/22 02:13:46;;;;;;;5.40;3.10;;;;;;;;;;5019921;28;20421;-87
2022/09/22 02:16:14;;;;;;;6.45;2.97;;;;;;;;;;5025986;28;20762;-87
2022/09/22 02:18:55;;;;;;;6.13;3.63;;;;;;;;;;4984507;28;20070;-87
2022/09/22 02:21:24;;;;;;;6.38;3.38;;;;;;;;;;5000776;28;20045;-87
2022/09/22 02:23:50;;;;;;;10.10;3.90;;;;;;;;;;5001110;28;20050;-87
2022/09/22 02:26:27;;;;;;;9.93;3.92;;;;;;;;;;4997107;28;20047;-87
2022/09/22 02:29:01;;;;;;;6.57;3.35;;;;;;;;;;4984650;28;20509;-87
2022/09/22 02:31:28;;;;;;;6.30;3.80;;;;;;;;;;4998511;28;20081;-86
2022/09/22 02:33:54;;;;;;;5.15;3.00;;;;;;;;;;4986557;28;20410;-86
2022/09/22 02:36:33;;;;;;;5.30;3.20;;;;;;;;;;4999055;28;20038;-86
2022/09/22 02:39:02;;;;;;;5.80;3.25;;;;;;;;;;4992786;28;20041;-86
2022/09/22 02:41:40;;;;;;;5.55;3.33;;;;;;;;;;4996880;28;20050;-84
2022/09/22 02:44:15;;;;;;;5.70;3.35;;;;;;;;;;5001545;28;20045;-86
2022/09/22 02:46:45;;;;;;;6.18;3.28;;;;;;;;;;4989743;28;20045;-87
2022/09/22 02:49:14;;;;;;;5.25;3.13;;;;;;;;;;4996965;28;20052;-86
2022/09/22 02:51:40;;;;;;;5.57;3.42;;;;;;;;;;5005351;28;20051;-87
2022/09/22 02:54:06;;;;;;;5.70;2.97;;;;;;;;;;4990300;28;20081;-87
2022/09/22 02:56:33;;;;;;;6.95;3.47;;;;;;;;;;5015791;28;20045;-86
2022/09/22 02:58:59;;;;;;;6.28;3.53;;;;;;;;;;4976231;28;20069;-87
2022/09/22 03:01:25;;;;;;;5.57;3.50;;;;;;;;;;5003531;28;20622;-86
2022/09/22 03:03:51;;;;;;;6.47;3.92;;;;;;;;;;5004175;28;20052;-86
2022/09/22 03:06:17;;;;;;;6.43;3.90;;;;;;;;;;5003190;28;20048;-86
2022/09/22 03:08:43;;;;;;;4.85;3.10;;;;;;;;;;4987905;28;20088;-86
2022/09/22 03:11:09;;;;;;;5.40;3.45;;;;;;;;;;4985321;28;20050;-87
2022/09/22 03:13:35;;;;;;;5.40;3.30;;;;;;;;;;4998860;28;20096;-87
2022/09/22 03:16:01;;;;;;;5.30;3.17;;;;;;;;;;5001509;28;20037;-87
2022/09/22 03:18:27;;;;;;;7.85;3.58;;;;;;;;;;5016329;28;20042;-86
2022/09/22 03:20:53;;;;;;;5.25;2.92;;;;;;;;;;4983923;28;20040;-86
2022/09/22 03:23:19;;;;;;;4.90;2.83;;;;;;;;;;5002541;28;20046;-87
2022/09/22 03:25:45;;;;;;;5.60;3.35;;;;;;;;;;5000136;28;20043;-87
2022/09/22 03:28:14;;;;;;;5.63;3.15;;;;;;;;;;4987583;28;20033;-87
2022/09/22 03:30:40;;;;;;;5.35;3.00;;;;;;;;;;4999792;28;20052;-87
2022/09/22 03:33:06;;;;;;;4.75;2.92;;;;;;;;;;5007918;28;20100;-87
2022/09/22 03:35:32;;;;;;;4.97;3.17;;;;;;;;;;4997573;28;20070;-87
2022/09/22 03:37:58;;;;;;;5.25;3.55;;;;;;;;;;4983576;28;20037;-88
2022/09/22 03:40:24;;;;;;;4.70;3.03;;;;;;;;;;5019810;28;20072;-88
2022/09/22 03:42:50;;;;;;;5.47;3.47;;;;;;;;;;4991405;28;20845;-88
2022/09/22 03:45:19;;;;;;;4.97;2.97;;;;;;;;;;5024753;28;20057;-87
2022/09/22 03:47:45;;;;;;;5.28;3.38;;;;;;;;;;5024995;28;20046;-88
2022/09/22 03:50:12;;;;;;;4.93;2.90;;;;;;;;;;5001922;28;20049;-87
2022/09/22 03:52:41;;;;;;;5.50;3.63;;;;;;;;;;4983534;28;20092;-87
2022/09/22 03:55:08;;;;;;;6.72;4.53;;;;;;;;;;4994001;28;20079;-87
2022/09/22 03:57:36;;;;;;;6.97;4.32;;;;;;;;;;4975536;28;20052;-88
2022/09/22 04:00:04;;;;;;;7.18;4.10;;;;;;;;;;4996310;28;20765;-87
2022/09/22 04:02:30;;;;;;;5.53;3.90;;;;;;;;;;5005424;28;20042;-87
2022/09/22 04:04:56;;;;;;;5.38;3.58;;;;;;;;;;4990452;28;20057;-87
2022/09/22 04:07:21;;;;;;;5.90;4.40;;;;;;;;;;4987683;28;20592;-86
2022/09/22 04:09:48;;;;;;;6.72;4.10;;;;;;;;;;4985147;28;20045;-87
2022/09/22 04:12:14;;;;;;;6.22;3.55;;;;;;;;;;5003868;28;20120;-88
2022/09/22 04:14:40;;;;;;;5.20;3.30;;;;;;;;;;5010906;28;20041;-87
2022/09/22 04:17:06;;;;;;;5.45;3.10;;;;;;;;;;5003640;28;20037;-87
2022/09/22 04:19:34;;;;;;;4.82;3.00;;;;;;;;;;4995501;28;20048;-87
2022/09/22 04:22:03;;;;;;;5.40;3.50;;;;;;;;;;4997591;28;20048;-87
2022/09/22 04:24:29;;;;;;;6.18;3.45;;;;;;;;;;5002078;28;20145;-87
2022/09/22 04:26:55;;;;;;;5.43;3.28;;;;;;;;;;4988806;28;20091;-86
2022/09/22 04:29:21;;;;;;;5.30;3.50;;;;;;;;;;4980523;28;20049;-87
2022/09/22 04:31:47;;;;;;;5.70;3.33;;;;;;;;;;4978402;28;20042;-87
2022/09/22 04:34:13;;;;;;;5.90;3.72;;;;;;;;;;5001506;28;20044;-87
2022/09/22 04:36:39;;;;;;;7.10;3.60;;;;;;;;;;5012823;28;20049;-87
2022/09/22 04:39:05;;;;;;;6.70;3.40;;;;;;;;;;4978412;28;20038;-87
2022/09/22 04:41:31;;;;;;;6.38;3.38;;;;;;;;;;4984272;28;20467;-87
2022/09/22 04:44:00;;;;;;;6.05;3.38;;;;;;;;;;4999081;28;20095;-88
2022/09/22 04:46:26;;;;;;;6.05;3.42;;;;;;;;;;4975921;28;20057;-86
2022/09/22 04:48:52;;;;;;;5.70;3.78;;;;;;;;;;4985894;28;20037;-89
2022/09/22 04:51:18;;;;;;;6.00;3.88;;;;;;;;;;4966201;28;20131;-86
2022/09/22 04:53:44;;;;;;;7.18;3.67;;;;;;;;;;5000968;28;20041;-87
2022/09/22 04:56:13;;;;;;;5.47;3.42;;;;;;;;;;4995562;28;20040;-87
2022/09/22 04:58:39;;;;;;;5.80;3.20;;;;;;;;;;4988447;28;20770;-86
2022/09/22 05:01:06;;;;;;;5.65;3.17;;;;;;;;;;4979305;28;20529;-86
2022/09/22 05:03:36;;;;;;;5.72;3.17;;;;;;;;;;4971943;28;20073;-86
2022/09/22 05:06:02;;;;;;;6.72;3.50;;;;;;;;;;4966567;28;20108;-87
2022/09/22 05:08:31;;;;;;;6.40;3.60;;;;;;;;;;4963840;28;20052;-86
2022/09/22 05:10:58;;;;;;;6.47;3.60;;;;;;;;;;4967539;28;20456;-87
2022/09/22 05:13:30;;;;;;;8.15;3.88;;;;;;;;;;4965837;28;20100;-89
2022/09/22 05:15:56;;;;;;;6.47;3.95;;;;;;;;;;4971084;28;20710;-86
2022/09/22 05:18:22;;;;;;;7.38;3.75;;;;;;;;;;4991684;28;20053;-86
2022/09/22 05:20:51;;;;;;;5.70;3.67;;;;;;;;;;5012562;28;20045;-86
2022/09/22 05:23:19;;;;;;;6.20;3.58;;;;;;;;;;5003960;28;20037;-88
2022/09/22 05:25:57;;;;;;;7.40;3.50;;;;;;;;;;4988680;28;20053;-88
2022/09/22 05:28:28;;;;;;;5.88;3.50;;;;;;;;;;5014547;28;20076;-88
2022/09/22 05:30:54;;;;;;;5.95;2.80;;;;;;;;;;4984316;28;20052;-85
2022/09/22 05:33:20;;;;;;;5.20;3.30;;;;;;;;;;5009256;28;20049;-88
2022/09/22 05:35:46;;;;;;;5.40;2.97;;;;;;;;;;4999570;28;20764;-87
2022/09/22 05:38:12;;;;;;;5.85;3.85;;;;;;;;;;4980747;28;20484;-88
2022/09/22 05:40:38;;;;;;;6.35;3.50;;;;;;;;;;5020032;28;20461;-88
2022/09/22 05:43:04;;;;;;;6.35;3.50;;;;;;;;;;5018339;28;20052;-86
2022/09/22 05:45:36;;;;;;;5.45;3.20;;;;;;;;;;5010845;28;20042;-86
2022/09/22 05:48:02;;;;;;;6.70;3.90;;;;;;;;;;4984531;28;20099;-87
2022/09/22 05:50:28;;;;;;;5.45;3.38;;;;;;;;;;4973277;28;20073;-87
2022/09/22 05:53:09;;;;;;;6.25;3.90;;;;;;;;;;4987202;28;20073;-86
2022/09/22 05:55:38;;;;;;;5.03;3.17;;;;;;;;;;4986973;28;20077;-87
2022/09/22 05:58:04;;;;;;;7.05;3.67;;;;;;;;;;4994531;28;20076;-86
2022/09/22 06:00:30;;;;;;;5.40;3.17;;;;;;;;;;4995263;28;20576;-87
2022/09/22 06:02:59;;;;;;;6.53;3.95;;;;;;;;;;4994658;28;20042;-87
2022/09/22 06:05:25;;;;;;;8.05;4.38;;;;;;;;;;4993267;28;20057;-85
2022/09/22 06:08:00;;;;;;;6.63;3.90;;;;;;;;;;4999686;23;20083;-82
2022/09/22 06:10:26;;;;;;;8.63;4.18;;;;;;;;;;4983519;28;20128;-82
2022/09/22 06:13:05;;;;;;;6.43;4.22;;;;;;;;;;5003011;28;20053;-83
2022/09/22 06:15:33;;;;;;;9.60;4.32;;;;;;;;;;4993840;28;20038;-82
2022/09/22 06:17:59;;;;;;;7.60;4.50;;;;;;;;;;4991624;28;20116;-83
2022/09/22 06:20:26;;;;;;;7.50;5.18;;;;;;;;;;5003196;28;20497;-81
2022/09/22 06:22:53;;;;;;;9.07;5.10;;;;;;;;;;4974305;28;20049;-82
2022/09/22 06:25:20;;;;;;;7.63;5.22;;;;;;;;;;4996436;28;20125;-83
2022/09/22 06:28:04;;;;;;;8.32;5.38;;;;;;;;;;4968173;28;20084;-80
2022/09/22 06:30:31;;;;;;;8.98;5.53;;;;;;;;;;4958478;28;20153;-83
2022/09/22 06:33:00;;;;;;;8.80;5.25;;;;;;;;;;4974481;28;20109;-83
2022/09/22 06:35:32;;;;;;;9.05;5.35;;;;;;;;;;4982370;28;20117;-81
2022/09/22 06:37:58;;;;;;;8.65;6.53;;;;;;;;;;4984270;28;20037;-83
2022/09/22 06:40:25;;;;;;;7.63;5.25;;;;;;;;;;4985103;28;20372;-83
2022/09/22 06:43:10;;;;;;;10.18;5.90;;;;;;;;;;4963862;28;20469;-84
2022/09/22 06:45:36;;;;;;;;;;;;;;;;;;4984366;28;20696;-84
2022/09/22 06:48:02;;;;;;;9.93;5.82;;;;;;;;;;5000569;28;19978;-83
2022/09/22 06:50:31;;;;;;;9.57;5.57;;;;;;;;;;4966677;28;20038;-83
2022/09/22 06:53:05;;;;;;;8.90;5.57;;;;;;;;;;4972928;28;20047;-84
2022/09/22 06:55:32;;;;;;;8.15;5.35;;;;;;;;;;4974591;28;20060;-83
2022/09/22 06:57:58;;;;;;;10.35;5.95;;;;;;;;;;5005877;28;20041;-82
2022/09/22 07:00:27;;;;;;;11.27;7.07;;;;;;;;;;5005693;28;20053;-83
2022/09/22 07:03:00;;;;;;;10.00;6.05;;;;;;;;;;4995592;28;20077;-84
2022/09/22 07:05:26;;;;;;;10.20;6.55;;;;;;;;;;5003089;28;20069;-81
2022/09/22 07:07:52;;;;;;;11.52;6.07;;;;;;;;;;4981831;28;20054;-83
2022/09/22 07:10:18;;;;;;;15.43;9.18;;;;;;;;;;4976727;28;20058;-83
2022/09/22 07:12:48;;;;;;;10.70;6.72;;;;;;;;;;4984796;28;20038;-85
2022/09/22 07:15:16;;;;;;;11.40;7.05;;;;;;;;;;5010272;28;20041;-83
2022/09/22 07:17:42;;;;;;;11.80;7.80;;;;;;;;;;5010264;28;20049;-83
2022/09/22 07:20:08;;;;;;;12.82;6.88;;;;;;;;;;5002683;28;20092;-85
2022/09/22 07:22:38;;;;;;;14.30;7.47;;;;;;;;;;4986238;28;20113;-83
2022/09/22 07:25:05;;;;;;;13.57;7.55;;;;;;;;;;5007623;28;20042;-84
2022/09/22 07:27:34;;;;;;;14.98;8.40;;;;;;;;;;4994198;28;20046;-85
2022/09/22 07:30:01;;;;;;;12.82;6.65;;;;;;;;;;4988998;28;20130;-84
2022/09/22 07:32:29;;;;;;;10.93;6.93;;;;;;;;;;4990589;28;20056;-82
2022/09/22 07:34:55;;;;;;;12.05;5.75;;;;;;;;;;4998087;28;20411;-83
2022/09/22 07:37:24;;;;;;;10.55;5.90;;;;;;;;;;5007281;28;20090;-84
2022/09/22 07:39:50;;;;;;;9.90;5.50;;;;;;;;;;4994532;28;20042;-84
2022/09/22 07:42:16;;;;;;;10.48;6.20;;;;;;;;;;5006429;28;20431;-81
2022/09/22 07:50:53;;;;;;;10.88;6.88;;;;;;;;;;4971099;28;20057;-83
2022/09/22 07:53:26;;;;;;;8.30;5.25;;;;;;;;;;4976824;28;20070;-79
2022/09/22 07:55:52;;;;;;;10.27;5.03;;;;;;;;;;4991020;28;20042;-82
2022/09/22 07:58:18;;;;;;;11.88;5.32;;;;;;;;;;4994477;28;20035;-81
2022/09/22 08:00:44;;;;;;;9.00;5.25;;;;;;;;;;5017325;28;20309;-83
2022/09/22 08:03:10;;;;;;;8.95;4.85;;;;;;;;;;5016197;28;20060;-85
2022/09/22 08:05:37;;;;;;;9.73;4.75;;;;;;;;;;5007041;28;20121;-84
2022/09/22 08:08:04;;;;;;;8.35;4.28;;;;;;;;;;4990851;28;20060;-84
2022/09/22 08:10:34;;;;;;;9.43;4.90;;;;;;;;;;5000399;28;20042;-82
2022/09/22 08:13:01;;;;;;;10.25;4.60;;;;;;;;;;5011938;28;20042;-83
2022/09/22 08:15:27;;;;;;;8.70;4.28;;;;;;;;;;5016003;28;20046;-81
2022/09/22 08:17:57;;;;;;;7.28;4.50;;;;;;;;;;4991368;28;20057;-83
2022/09/22 08:20:27;;;;;;;9.82;4.68;;;;;;;;;;4970907;28;20046;-84
2022/09/22 08:22:56;;;;;;;7.85;3.80;;;;;;;;;;5010361;28;20157;-84
2022/09/22 08:25:24;;;;;;;10.32;4.10;;;;;;;;;;4970426;28;20050;-82
2022/09/22 08:27:50;;;;;;;8.90;4.60;;;;;;;;;;4995625;28;20381;-84
2022/09/22 08:30:17;;;;;;;8.10;4.22;;;;;;;;;;5009181;28;20038;-84
2022/09/22 08:32:44;;;;;;;8.40;4.07;;;;;;;;;;5001097;28;20042;-85
2022/09/22 08:35:10;;;;;;;9.35;4.28;;;;;;;;;;5005193;28;20038;-84
2022/09/22 08:37:36;;;;;;;7.30;3.60;;;;;;;;;;4990654;28;20057;-82
2022/09/22 08:40:03;;;;;;;7.13;3.20;;;;;;;;;;5004296;28;20046;-84
2022/09/22 08:42:30;;;;;;;8.63;3.42;;;;;;;;;;4985372;28;20069;-84
2022/09/22 08:44:56;;;;;;;8.10;3.67;;;;;;;;;;5019125;28;20079;-85
2022/09/22 08:53:08;;;;;;;7.85;3.63;;;;;;;;;;4985768;28;20053;-83
2022/09/22 08:55:43;;;;;;;6.47;3.53;;;;;;;;;;4997598;28;20038;-84
2022/09/22 08:58:25;;;;;;;9.35;3.72;;;;;;;;;;4995004;28;20089;-85
2022/09/22 09:01:07;;;;;;;7.15;3.58;;;12.90;1.00;;;;;;4986165;28;20042;-85
2022/09/22 09:03:43;;;;;;;8.05;3.63;;;;;;;;;;4987897;28;20046;-83
2022/09/22 09:06:21;;;;;;;10.00;3.70;;;;;;;;;;5007396;28;20043;-84
2022/09/22 09:09:11;;;;;;;7.10;3.33;;;13.30;1.00;;;;;;4985137;28;20130;-83
2022/09/22 09:11:52;;;;;;;8.20;3.50;;;13.30;1.00;;;;;;5002112;28;20103;-85
2022/09/22 09:14:50;;;;;;;7.20;3.47;;;13.60;1.00;;;;;;4999317;28;20034;-84
2022/09/22 09:17:22;;;;;;;9.40;3.13;;;13.50;1.00;;;;;;5005424;28;20037;-82
2022/09/22 09:19:57;;;;;;;7.90;3.00;;;13.60;99.90;;;;;;4997842;28;20054;-84
2022/09/22 09:22:47;;;;;;;5.68;2.75;;;13.90;99.90;;;;;;4985609;28;20054;-84
2022/09/22 09:25:22;;;;;;;7.47;2.80;;;14.40;99.90;;;;;;4998436;28;20041;-85
2022/09/22 09:28:02;;;;;;;7.78;3.10;;;14.00;99.90;;;;;;5000484;28;20426;-84
2022/09/22 09:30:37;;;;;;;6.85;3.45;;;13.90;99.90;;;;;;4998405;28;20218;-83
2022/09/22 09:33:13;;;;;;;6.32;3.28;;;14.10;99.90;;;;;;4985944;28;20104;-83
2022/09/22 09:35:48;;;;;;;8.45;3.85;;;14.10;99.90;;;;;;5001789;28;20057;-84
2022/09/22 09:38:16;;;;;;;9.70;4.40;;;;;;;;;;4979174;28;20061;-83
2022/09/22 09:40:48;;;;;;;9.93;4.28;;;14.40;99.90;;;;;;5004788;28;20037;-82
2022/09/22 09:43:14;;;;;;;10.27;3.97;;;14.70;99.90;;;;;;5009706;28;20041;-84
2022/09/22 09:45:59;;;;;;;10.63;4.57;;;;;;;;;;5001951;28;20042;-85
2022/09/22 09:48:47;;;;;;;8.40;4.97;;;14.60;99.90;;;;;;4997262;28;20073;-83
2022/09/22 09:51:13;;;;;;;9.43;5.13;;;14.60;99.90;;;;;;5006639;28;20038;-81
2022/09/22 09:53:44;;;;;;;8.88;5.55;;;15.00;99.90;;;;;;4969073;28;20052;-84
2022/09/22 09:56:27;;;;;;;13.00;6.80;;;15.00;99.90;;;;;;4999702;28;20038;-84
2022/09/22 10:01:45;;;;;;;9.45;5.90;;;15.40;99.90;;;;;;5008252;28;20046;-85
2022/09/22 10:04:31;;;;;;;10.52;5.15;;;15.20;99.90;;;;;;4966291;28;20100;-82
2022/09/22 10:07:11;;;;;;;9.25;4.95;;;;;;;;;;5001068;28;20042;-82
2022/09/22 10:09:38;;;;;;;9.27;5.47;;;;;;;;;;5004562;28;20077;-84
2022/09/22 10:12:04;;;;;;;9.90;5.18;;;15.30;99.90;;;;;;4975269;28;20295;-84
2022/09/22 10:14:31;;;;;;;9.52;4.60;;;;;;;;;;4993856;28;20537;-84
2022/09/22 10:16:57;;;;;;;7.35;4.53;;;15.50;99.90;;;;;;4982360;28;20035;-84
2022/09/22 10:19:27;;;;;;;7.85;3.80;;;15.60;99.90;;;;;;4962053;28;20144;-84
2022/09/22 10:22:24;;;;;;;7.95;3.95;;;15.50;99.90;;;;;;4988379;28;20082;-84
2022/09/22 10:25:00;;;;;;;8.75;4.50;;;15.90;99.90;;;;;;4975234;28;20053;-84
2022/09/22 10:27:28;;;;;;;9.63;4.53;;;15.90;99.90;;;;;;4971979;28;20034;-81
2022/09/22 10:30:24;;;;;;;8.13;4.57;;;16.20;99.90;;;;;;4990828;28;20041;-85
2022/09/22 10:33:13;;;;;;;6.80;4.13;;;16.00;99.90;;;;;;4946098;28;20050;-83
2022/09/22 10:35:41;;;;;;;12.75;4.40;;;15.80;99.90;;;;;;4979083;28;20077;-84
2022/09/22 10:38:19;;;;;;;8.88;4.38;;;16.00;99.90;;;;;;5000502;28;20631;-83
2022/09/22 10:41:11;;;;;;;9.65;5.30;;;16.00;99.90;;;;;;4980589;28;20560;-84
2022/09/22 10:43:54;;;;;;;10.00;5.13;;;15.80;99.90;;;;;;4977495;28;20050;-84
2022/09/22 10:46:27;;;;;;;9.05;5.57;;;;;;;;;;4968942;28;20751;-83
2022/09/22 10:48:57;;;;;;;12.23;6.75;;;;;;;;;;4933383;28;20145;-83
2022/09/22 10:51:34;;;;;;;9.38;5.53;;;;;;;;;;4939488;28;20045;-82
2022/09/22 10:54:09;;;;;;;8.50;5.57;;;;;;;;;;4937541;28;20064;-81
2022/09/22 10:56:43;;;;;;;10.57;4.97;;;;;;;;;;4929055;28;20544;-83
2022/09/22 10:59:31;;;;;;;9.38;6.00;;;;;;;;;;4931132;28;20138;-82
2022/09/22 11:02:00;;;;;;;8.40;5.85;;;;;;;;;;4912040;28;20149;-85
2022/09/22 11:04:36;;;;;;;12.10;6.28;;;;;;;;;;4942602;28;20152;-82
2022/09/22 11:17:04;;;;;;;10.02;3.92;;;;;;;;;;4846499;29;20080;-82
2022/09/22 11:20:31;;;;;;;7.00;4.30;;;17.30;99.90;;;;;;4838715;29;20085;-86
2022/09/22 11:23:26;;;;;;;10.35;5.43;;;;;;;;;;4787392;29;20601;-84
2022/09/22 11:26:04;;;;;;;7.32;4.95;;;;;;;;;;4771219;29;20711;-85
2022/09/22 11:28:42;;;;;;;9.80;5.32;;;;;;;;;;4943414;28;20363;-84
2022/09/22 11:31:10;;;;;;;9.63;5.18;;;;;;;;;;4952089;28;20811;-84
2022/09/22 11:33:39;;;;;;;11.23;5.47;;;;;;;;;;4944001;28;20034;-82
2022/09/22 11:36:20;;;;;;;8.52;4.85;;;;;;;;;;4921588;28;20038;-82
2022/09/22 11:38:56;;;;;;;10.90;5.50;;;;;;;;;;4940706;28;20043;-82
2022/09/22 11:41:28;;;;;;;7.93;5.30;;;;;;;;;;4942240;28;20137;-81
2022/09/22 11:44:24;;;;;;;10.88;6.13;;;;;;;;;;4953252;28;20088;-81
2022/09/22 11:47:08;;;;;;;9.98;6.18;;;;;;;;;;4919555;28;20121;-81
2022/09/22 11:49:53;;;;;;;9.90;6.25;;;;;;;;;;4905305;28;20272;-83
2022/09/22 11:52:42;;;;;;;9.90;5.72;;;;;;;;;;4927918;28;20047;-84
2022/09/22 11:55:17;;;;;;;10.02;6.22;;;;;;;;;;4943206;28;20839;-83
2022/09/22 11:57:50;;;;;;;12.50;6.65;;;;;;;;;;4922856;28;20545;-83
2022/09/22 12:00:20;;;;;;;12.00;6.65;;;;;;;;;;4941736;28;20034;-83
2022/09/22 12:02:53;;;;;;;10.68;5.55;;;;;;;;;;4944541;28;20157;-83
2022/09/22 12:05:27;;;;;;;8.80;5.88;;;;;;;;;;4931184;28;20867;-84
2022/09/22 12:10:33;;;;;;;9.45;5.47;;;19.50;99.90;;;;;;4997728;22;20205;-63
2022/09/22 12:13:06;;;;;;;10.85;4.95;;;19.80;99.90;;;;;;5032004;28;20045;-64
2022/09/22 12:16:02;;;;;;;9.23;4.88;;;20.20;99.90;;;;;;5032015;28;20037;-64
2022/09/22 12:18:39;;;;;;;9.75;5.03;;;20.50;99.90;;;;;;5031497;28;20042;-64
2022/09/22 12:21:21;;;;;;;10.68;5.22;;;20.80;99.90;;;;;;5014313;28;20048;-64
2022/09/22 12:23:52;;;;;;;9.85;5.80;;;20.80;99.90;;;;;;5012832;28;20037;-64
2022/09/22 12:26:27;;;;;;;10.32;5.25;;;20.90;99.90;;;;;;5032107;28;20041;-65
2022/09/22 12:28:57;;;;;;;9.45;5.60;;;20.70;99.90;;;;;;4996306;28;20045;-64
2022/09/22 12:31:52;;;;;;;10.32;5.82;;;21.10;99.90;;;;;;5014223;28;20521;-64
2022/09/22 12:34:38;;;;;;;10.43;5.85;;;21.10;99.90;;;;;;5014020;28;20388;-64
2022/09/22 12:37:32;;;;;;;8.35;4.72;;;21.80;99.90;;;;;;4996931;28;20029;-64
2022/09/22 12:40:31;;;;;;;8.35;4.72;;;22.30;99.90;;;;;;5025972;28;20179;-65
2022/09/22 12:43:18;;;;;;;9.32;5.47;;;;;;;;;;5026124;28;20053;-65
2022/09/22 12:45:44;;;;;;;7.55;5.38;;;25.20;99.90;;;;;;4996675;28;20037;-64
2022/09/22 12:48:21;;;;;;;7.85;4.80;;;25.50;99.90;;;;;;5031375;28;20524;-64
2022/09/22 12:50:48;;;;;;;9.02;4.70;;;25.60;99.90;;;;;;5030975;28;20053;-65
2022/09/22 12:53:34;;;;;;;6.65;4.68;;;26.40;99.90;;;;;;5031037;28;20037;-64
2022/09/22 12:56:43;;;;;;;8.57;5.35;;;27.50;99.90;;;;;;5007745;28;20030;-64
2022/09/22 12:59:32;;;;;;;8.02;4.82;;;28.80;99.90;;;;;;5012302;28;20038;-64
2022/09/22 13:02:30;;;;;;;8.45;5.38;;;30.10;99.90;;;;;;5020521;28;20507;-64
2022/09/22 13:05:00;;;;;;;7.38;4.50;;;29.60;99.90;;;;;;5022819;28;20067;-64
2022/09/22 13:07:38;;;;;;;9.90;4.93;;;;;;;;;;5013887;28;20045;-65
2022/09/22 13:10:23;;;;;;;7.57;4.55;;;30.50;99.90;;;;;;5027471;28;20453;-64
2022/09/22 13:13:08;;;;;;;9.10;4.13;;;;;;;;;;5030575;28;20057;-65
2022/09/22 13:15:46;;;;;;;8.95;4.70;;;32.10;99.90;;;;;;5031049;28;20043;-64
2022/09/22 13:18:32;;;;;;;7.78;4.50;;;31.80;99.90;;;;;;5030923;28;20037;-64
2022/09/22 13:21:03;;;;;;;9.32;4.10;;;30.10;99.90;;;;;;5006109;28;20037;-64
2022/09/22 13:23:33;;;;;;;7.47;4.10;;;29.20;99.90;;;;;;5016970;28;20634;-64
2022/09/22 13:26:33;;;;;;;7.97;3.28;;;29.60;99.90;;;;;;5010522;28;20045;-64
2022/09/22 13:29:16;;;;;;;6.50;3.90;;;30.50;99.90;;;;;;4990110;28;20124;-64
2022/09/22 13:31:54;;;;;;;6.43;3.40;;;31.90;99.90;;;;;;4991276;28;20543;-64
2022/09/22 13:34:26;;;;;;;7.70;3.83;;;32.20;99.90;;;;;;4987531;28;20112;-64
2022/09/22 13:37:02;;;;;;;8.90;3.38;;;32.10;99.90;;;;;;4930087;28;20339;-63
2022/09/22 13:39:46;;;;;;;6.70;3.33;;;31.90;99.90;;;;;;4866472;28;20469;-62
2022/09/22 13:42:19;;;;;;;9.07;4.30;;;32.10;99.90;;;;;;4866212;28;20400;-64
2022/09/22 13:44:56;;;;;;;7.40;3.60;;;31.80;99.90;;;;;;4972093;28;20129;-64
2022/09/22 13:47:24;;;;;;;9.05;3.30;;;31.50;99.90;;;;;;4972058;28;20508;-64
2022/09/22 13:50:27;;;;;;;7.93;3.38;;;31.00;99.90;;;;;;4957406;28;20077;-64
2022/09/22 13:52:54;;;;;;;7.20;3.60;;;31.30;99.90;;;;;;4981393;28;20043;-64
2022/09/22 13:55:37;;;;;;;6.18;3.13;;;31.70;99.90;;;;;;4972950;28;20047;-64
2022/09/22 13:58:05;;;;;;;6.70;3.03;;;31.80;99.90;;;;;;4979962;28;20100;-64
2022/09/22 14:01:01;;;;;;;5.93;2.70;;;31.50;99.90;;;;;;4968206;28;20453;-64
2022/09/22 14:03:37;;;;;;;6.90;3.20;;;30.80;99.90;;;;;;4948855;28;20042;-62
2022/09/22 14:06:08;;;;;;;5.70;2.58;;;30.50;99.90;;;;;;4868918;28;20586;-62
2022/09/22 14:08:34;;;;;;;8.95;3.05;;;30.40;99.90;;;;;;4919561;28;20104;-64
2022/09/22 14:11:01;;;;;;;6.50;2.35;;;30.30;99.90;;;;;;4984046;28;20042;-64
2022/09/22 14:13:52;;;;;;;5.97;2.80;;;30.30;99.90;;;;;;4967133;28;20121;-62
2022/09/22 14:16:27;;;;;;;6.88;2.40;;;30.40;99.90;;;;;;4889600;28;20551;-62
2022/09/22 14:19:21;;;;;;;7.40;2.70;;;30.30;99.90;;;;;;4948299;28;20026;-64
2022/09/22 14:21:59;;;;;;;7.13;2.40;;;30.40;99.90;;;;;;4977773;28;20105;-64
2022/09/22 14:24:26;;;;;;;6.28;2.40;;;30.50;99.90;;;;;;4974152;28;20062;-64
2022/09/22 14:27:02;;;;;;;6.57;2.85;;;30.10;99.90;;;;;;4958498;28;20038;-63
2022/09/22 14:29:38;;;;;;;7.32;2.90;;;30.00;99.90;;;;;;4961489;28;20112;-63
2022/09/22 14:32:07;;;;;;;8.98;2.45;;;29.40;99.90;;;;;;4956336;28;20060;-63
2022/09/22 14:34:34;;;;;;;9.55;3.08;;;29.40;99.90;;;;;;4972853;28;20054;-64
2022/09/22 14:37:22;;;;;;;7.00;2.95;;;29.50;99.90;;;;;;4966393;28;20425;-63
2022/09/22 14:39:51;;;;;;;7.45;2.60;;;29.60;99.90;;;;;;4960308;28;20125;-63
2022/09/22 14:42:27;;;;;;;5.47;2.55;;;29.40;99.90;;;;;;4896881;28;20107;-63
2022/09/22 14:45:20;;;;;;;6.43;2.50;;;29.40;99.90;;;;;;4879108;28;20195;-64
2022/09/22 14:48:06;;;;;;;7.03;2.70;;;28.70;99.90;;;;;;4913115;28;20050;-64
2022/09/22 14:51:01;;;;;;;8.95;2.88;;;28.20;99.90;;;;;;4978208;28;20504;-64
2022/09/22 14:53:37;;;;;;;6.43;2.53;;;27.80;99.90;;;;;;4948251;28;20142;-65
2022/09/22 14:56:31;;;;;;;7.28;2.50;;;27.70;99.90;;;;;;4976949;28;20416;-65
2022/09/22 15:02:32;;;;;;;6.28;2.45;;;27.50;99.90;;;;;;4983063;28;20499;-81
2022/09/22 15:05:04;;;;;;;5.93;2.35;;;27.90;99.90;;;;;;5000909;28;20037;-80
2022/09/22 15:07:39;;;;;;;6.43;2.65;;;28.20;99.90;;;;;;5009687;28;20274;-80